Time;durP1;ratioP1;P1;durP2;ratioP2;P2;SDS_P1;SDS_P2;PMS_P1;PMS_P2;Temp;Humidity;BMP_temperature;BMP_pressure;BME280_temperature;BME280_humidity;BME280_pressure;Samples;Min_cycle;Max_cycle;Signal;HPM_P1;HPM_P2
2022/03/29 00:02:01;;;;;;;38.30;21.73;;;;;;;5.22;85.53;101474.13;10479503;28;20098;-77
2022/03/29 00:07:01;;;;;;;38.83;23.23;;;;;;;5.17;86.04;101472.84;10496955;28;20046;-77
2022/03/29 00:12:02;;;;;;;35.92;23.10;;;;;;;5.11;86.27;101473.28;10496074;28;20127;-77
2022/03/29 00:17:03;;;;;;;38.90;20.35;;;;;;;5.02;86.13;101458.66;10478283;28;20050;-77
2022/03/29 00:22:03;;;;;;;40.83;20.77;;;;;;;4.93;86.51;101467.53;10493789;28;20036;-77
2022/03/29 00:27:05;;;;;;;43.65;23.20;;;;;;;4.94;86.61;101455.47;10476320;28;20047;-77
2022/03/29 00:32:06;;;;;;;57.20;26.05;;;;;;;4.95;86.71;101455.56;10496011;28;20029;-77
2022/03/29 00:37:07;;;;;;;50.05;25.52;;;;;;;5.04;86.92;101455.41;10460897;28;20097;-77
2022/03/29 00:42:07;;;;;;;41.33;22.42;;;;;;;4.97;86.70;101442.75;10477681;28;20133;-77
2022/03/29 00:47:08;;;;;;;46.72;24.20;;;;;;;4.89;86.66;101444.72;10458996;28;20403;-77
2022/03/29 00:52:08;;;;;;;46.65;27.10;;;;;;;4.84;86.91;101430.47;10477896;28;20055;-77
2022/03/29 00:57:11;;;;;;;49.85;22.17;;;;;;;4.84;87.09;101434.00;10476161;28;20449;-77
2022/03/29 01:02:12;;;;;;;38.65;21.80;;;;;;;4.85;87.08;101427.09;10476584;28;20430;-77
2022/03/29 01:07:12;;;;;;;37.40;23.42;;;;;;;4.86;87.00;101423.72;10477241;28;20166;-77
2022/03/29 01:12:13;;;;;;;46.92;24.40;;;;;;;4.87;87.25;101417.75;10476135;28;20043;-77
2022/03/29 01:22:32;;;;;;;50.45;25.50;;;;;;;4.81;87.53;101410.41;10465478;28;20094;-77
2022/03/29 01:27:33;;;;;;;42.65;22.95;;;;;;;4.73;87.37;101405.38;10477741;28;20044;-77
2022/03/29 01:32:35;;;;;;;47.72;25.05;;;;;;;4.67;87.64;101401.50;10498016;28;20479;-77
2022/03/29 01:37:35;;;;;;;;;;;;;;;4.64;87.84;101396.06;10485823;28;20029;-77
2022/03/29 01:42:36;;;;;;;43.28;24.65;;;;;;;4.58;88.03;101386.91;10500422;28;20425;-77
2022/03/29 01:47:37;;;;;;;51.92;28.42;;;;;;;4.53;87.97;101383.94;10467591;28;20567;-77
2022/03/29 01:52:48;;;;;;;39.58;24.95;;;;;;;4.53;88.30;101384.84;10501557;28;20079;-77
2022/03/29 01:57:48;;;;;;;42.92;27.33;;;;;;;4.51;88.48;101383.84;10467111;28;20043;-77
2022/03/29 02:02:49;;;;;;;51.22;25.58;;;;;;;4.50;88.50;101368.13;10500723;28;20043;-77
2022/03/29 02:07:50;;;;;;;43.05;25.35;;;;;;;4.63;88.70;101359.66;10465411;28;20491;-77
2022/03/29 02:12:51;;;;;;;58.70;28.00;;;;;;;4.54;88.78;101352.03;10499666;28;20082;-77
2022/03/29 02:17:52;;;;;;;55.25;27.23;;;;;;;4.51;89.23;101355.31;10501732;28;20052;-77
2022/03/29 02:22:52;;;;;;;42.75;26.58;;;;;;;4.49;88.57;101351.69;10500854;28;20041;-77
2022/03/29 02:27:53;;;;;;;47.05;26.85;;;;;;;4.50;88.76;101342.22;10483467;28;20065;-77
2022/03/29 02:32:53;;;;;;;38.80;23.35;;;;;;;4.61;89.12;101340.50;10466028;28;20078;-77
2022/03/29 02:37:54;;;;;;;43.08;24.25;;;;;;;4.51;88.51;101328.47;10500986;28;20098;-77
2022/03/29 02:42:57;;;;;;;39.95;22.35;;;;;;;4.43;89.01;101320.09;10479714;28;20032;-77
2022/03/29 02:48:01;;;;;;;48.80;25.67;;;;;;;4.39;88.94;101318.03;10499538;28;20045;-77
2022/03/29 02:53:02;;;;;;;48.30;28.42;;;;;;;4.38;89.36;101326.59;10499687;28;20437;-77
2022/03/29 02:58:03;;;;;;;51.35;27.77;;;;;;;4.39;89.50;101308.56;10465794;28;20097;-77
2022/03/29 03:03:04;;;;;;;51.90;27.20;;;;;;;4.46;89.70;101302.19;10480256;28;20475;-77
2022/03/29 03:08:05;;;;;;;49.90;30.20;;;;;;;4.56;89.69;101293.44;10479582;28;20279;-77
2022/03/29 03:13:05;;;;;;;52.88;32.05;;;;;;;4.69;90.10;101288.44;10480225;28;20028;-77
2022/03/29 03:18:06;;;;;;;50.00;26.80;;;;;;;4.84;89.73;101280.97;10498549;28;20059;-77
2022/03/29 03:23:07;;;;;;;51.28;29.48;;;;;;;4.96;88.99;101269.72;10497011;28;20035;-77
2022/03/29 03:28:07;;;;;;;45.22;26.67;;;;;;;4.91;89.05;101274.53;10498039;28;20543;-77
2022/03/29 03:33:08;;;;;;;41.10;26.55;;;;;;;5.03;88.69;101269.41;10496898;28;20111;-77
2022/03/29 03:38:08;;;;;;;53.05;30.05;;;;;;;4.94;88.46;101267.00;10478745;28;20467;-77
2022/03/29 03:43:09;;;;;;;43.53;27.00;;;;;;;5.13;87.87;101263.22;10497255;28;20040;-77
2022/03/29 03:48:09;;;;;;;36.92;27.83;;;;;;;5.23;88.16;101259.63;10480343;28;20462;-77
2022/03/29 03:53:11;;;;;;;40.60;26.67;;;;;;;5.23;87.52;101254.44;10497018;28;20071;-77
2022/03/29 03:58:13;;;;;;;45.25;26.08;;;;;;;5.18;86.96;101248.00;10495332;28;20396;-77
2022/03/29 04:03:14;;;;;;;;;;;;;;;5.05;87.36;101238.38;10495650;28;20029;-77
2022/03/29 04:08:14;;;;;;;48.38;29.80;;;;;;;5.03;88.13;101239.94;10497237;28;19923;-77
2022/03/29 04:13:15;;;;;;;47.47;29.08;;;;;;;4.97;88.28;101235.22;10494649;28;20067;-77
2022/03/29 04:18:16;;;;;;;49.80;31.58;;;;;;;4.84;88.03;101226.50;10495289;28;20052;-77
2022/03/29 04:23:17;;;;;;;56.83;34.30;;;;;;;4.79;88.88;101229.50;10478246;28;20067;-77
2022/03/29 04:28:17;;;;;;;53.40;28.77;;;;;;;4.92;88.22;101223.59;10495388;28;20059;-77
2022/03/29 04:33:18;;;;;;;53.83;32.70;;;;;;;5.04;87.52;101227.09;10494611;28;20452;-77
2022/03/29 04:38:19;;;;;;;46.90;29.35;;;;;;;4.86;87.58;101218.81;10476655;28;20101;-77
2022/03/29 04:43:20;;;;;;;51.08;31.73;;;;;;;4.87;88.03;101219.72;10478524;28;20095;-77
2022/03/29 04:48:20;;;;;;;54.22;32.90;;;;;;;4.76;87.66;101211.13;10493508;28;20129;-77
2022/03/29 04:53:23;;;;;;;45.67;32.22;;;;;;;4.63;88.28;101206.69;10492865;28;20575;-77
2022/03/29 04:58:24;;;;;;;58.83;36.30;;;;;;;4.64;88.50;101200.72;10495307;28;20062;-77
2022/03/29 05:03:25;;;;;;;58.83;34.70;;;;;;;4.58;89.05;101198.53;10504541;28;20361;-77
2022/03/29 05:08:26;;;;;;;60.80;35.75;;;;;;;4.48;89.06;101185.66;10503866;28;20037;-77
2022/03/29 05:13:26;;;;;;;69.82;39.08;;;;;;;4.23;89.14;101189.84;10505546;28;20028;-77
2022/03/29 05:18:27;;;;;;;60.70;36.50;;;;;;;4.39;89.37;101191.94;10506426;28;20505;-77
2022/03/29 05:23:27;;;;;;;63.60;38.03;;;;;;;4.10;88.96;101182.78;10470719;28;20036;-77
2022/03/29 05:28:28;;;;;;;61.33;38.40;;;;;;;4.02;90.09;101177.81;10489170;28;20111;-77
2022/03/29 05:33:28;;;;;;;59.42;36.38;;;;;;;4.01;89.91;101187.25;10507076;28;20068;-77
2022/03/29 05:38:29;;;;;;;67.30;40.85;;;;;;;4.11;90.36;101181.13;10488738;28;20040;-77
2022/03/29 05:43:30;;;;;;;77.78;41.63;;;;;;;4.11;90.08;101188.88;10504805;28;20040;-76
2022/03/29 05:48:51;;;;;;;63.75;41.60;;;;;;;4.14;90.28;101188.22;10504967;28;20127;-77
2022/03/29 05:53:52;;;;;;;78.90;45.92;;;;;;;4.10;90.63;101197.44;10508008;28;20504;-77
2022/03/29 05:58:53;;;;;;;72.10;39.08;;;;;;;4.32;90.87;101193.94;10485531;28;20063;-77
2022/03/29 06:03:54;;;;;;;63.97;43.42;;;;;;;4.51;91.18;101183.31;10486662;28;20153;-77
2022/03/29 06:08:55;;;;;;;63.95;42.25;;;;;;;4.66;90.64;101187.06;10482252;28;20048;-77
2022/03/29 06:13:56;;;;;;;75.68;43.75;;;;;;;5.07;90.18;101171.94;10501252;28;20127;-77
2022/03/29 06:18:56;;;;;;;65.45;37.30;;;;;;;5.32;88.90;101179.88;10497184;28;20431;-77
2022/03/29 06:23:57;;;;;;;72.93;40.63;;;;;;;5.68;88.56;101185.03;10476401;28;20119;-77
2022/03/29 06:28:58;;;;;;;65.22;40.70;;;;;;;6.01;86.35;101185.69;10483476;28;20474;-77
2022/03/29 06:33:58;;;;;;;65.53;36.88;;;;;;;6.22;85.99;101188.91;10499948;28;20020;-76
2022/03/29 06:38:59;;;;;;;63.00;38.08;;;;;;;6.51;84.36;101181.31;10498729;28;20016;-77
2022/03/29 06:44:00;;;;;;;69.70;47.55;;;;;;;6.73;83.14;101191.53;10474358;28;20484;-76
2022/03/29 06:49:02;;;;;;;47.70;33.53;;;;;;;6.87;83.49;101180.34;10486686;28;20538;-76
2022/03/29 06:54:03;;;;;;;54.33;33.88;;;;;;;7.00;81.91;101188.97;10498947;28;20519;-77
2022/03/29 06:59:04;;;;;;;54.80;35.63;;;;;;;7.09;80.82;101189.59;10461936;28;20016;-77
2022/03/29 07:04:07;;;;;;;54.53;31.65;;;;;;;7.20;80.38;101186.00;10479116;28;20075;-77
2022/03/29 07:14:27;;;;;;;60.13;38.65;;;;;;;7.66;78.40;101175.88;10498155;28;20159;-77
2022/03/29 07:19:27;;;;;;;56.65;37.80;;;;;;;7.76;78.71;101165.25;10480093;28;20029;-77
2022/03/29 07:24:28;;;;;;;50.88;32.60;;;;;;;7.80;77.67;101172.44;10497269;28;20391;-76
2022/03/29 07:29:29;;;;;;;61.60;35.20;;;;;;;7.87;76.84;101177.25;10497723;28;20379;-77
2022/03/29 07:34:35;;;;;;;79.00;49.37;;;;;;;7.75;77.36;101172.19;10474824;28;20035;-77
2022/03/29 07:39:35;;;;;;;76.65;52.90;;;;;;;7.46;77.36;101162.47;10534651;28;20032;-77
2022/03/29 07:44:36;;;;;;;60.03;41.03;;;;;;;7.38;78.79;101164.59;10495481;28;20064;-77
2022/03/29 07:49:36;;;;;;;61.47;39.83;;;;;;;7.28;78.72;101150.06;10496462;28;20154;-77
2022/03/29 07:54:37;;;;;;;66.57;44.60;;;;;;;7.28;78.66;101139.63;10495342;28;20068;-77
2022/03/29 07:59:38;;;;;;;69.55;45.90;;;;;;;7.57;78.99;101156.25;10496876;28;20058;-77
2022/03/29 08:04:38;;;;;;;62.03;40.65;;;;;;;7.94;77.13;101157.72;10478813;28;20032;-76
2022/03/29 08:09:39;;;;;;;68.80;43.05;;;;;;;8.37;76.11;101156.84;10495746;28;20444;-77
2022/03/29 08:14:39;;;;;;;77.88;48.50;;;;;;;8.75;74.31;101157.41;10496664;28;20031;-77
2022/03/29 08:19:40;;;;;;;64.53;41.42;;;;;;;9.44;71.58;101157.94;10477681;28;20472;-77
2022/03/29 08:24:40;;;;;;;66.43;41.80;;;;;;;9.84;70.96;101164.47;10496103;28;20436;-75
2022/03/29 08:29:41;;;;;;;71.55;43.30;;;;;;;9.98;69.63;101173.09;10477417;28;20047;-75
2022/03/29 08:34:41;;;;;;;75.45;46.30;;;;;;;9.81;69.60;101169.53;10495693;28;20044;-76
2022/03/29 08:39:42;;;;;;;79.63;50.10;;;;;;;10.12;68.84;101179.06;10494413;28;20067;-76
2022/03/29 08:44:42;;;;;;;74.13;47.15;;;;;;;11.00;67.01;101169.69;10475882;28;20089;-76
2022/03/29 08:49:44;;;;;;;75.47;40.03;;;;;;;12.23;61.50;101163.38;10494520;28;20132;-75
2022/03/29 08:54:44;;;;;;;84.53;47.10;;;;;;;12.72;61.13;101153.25;10461456;28;20036;-76
2022/03/29 08:59:45;;;;;;;94.97;51.15;;;;;;;12.71;59.95;101154.09;10495791;28;20025;-76
2022/03/29 09:05:09;;;;;;;88.20;49.90;;;;;;;12.68;60.30;101152.25;10475415;28;20129;-75
2022/03/29 09:10:09;;;;;;;94.65;51.97;;;;;;;12.61;61.08;101148.44;10467388;28;20094;-76
2022/03/29 09:15:10;;;;;;;98.82;50.95;;;;;;;12.19;61.67;101153.56;10475540;28;20029;-76
2022/03/29 09:20:21;;;;;;;95.47;53.63;;;;;;;12.50;62.20;101146.19;10493651;28;20028;-76
2022/03/29 09:25:26;;;;;;;113.65;56.03;;;;;;;12.60;60.12;101138.75;10478268;28;20063;-77
2022/03/29 09:30:40;;;;;;;114.78;58.28;;;;;;;11.81;63.49;101131.66;10460235;28;20016;-77
2022/03/29 09:35:52;;;;;;;116.13;63.30;;;;;;;11.50;63.66;101128.50;10478595;28;20031;-77
2022/03/29 09:40:53;;;;;;;112.35;60.45;;;;;;;11.35;64.57;101126.03;10493309;28;20078;-77
2022/03/29 09:45:55;;;;;;;127.50;64.45;;;;;;;11.01;65.72;101122.66;10477017;28;20426;-77
2022/03/29 09:50:58;;;;;;;118.78;57.55;;;;;;;11.26;65.96;101116.00;10411813;28;20420;-77
2022/03/29 09:56:02;;;;;;;125.13;62.92;;;;;;;11.59;64.67;101102.72;10416664;28;20033;-77
2022/03/29 10:01:03;;;;;;;136.98;64.63;;;;;;;11.95;63.92;101099.09;10418881;28;20029;-77
2022/03/29 10:06:04;;;;;;;118.72;63.53;;;;;;;12.07;62.79;101082.16;10399891;28;20120;-77
2022/03/29 10:11:05;;;;;;;119.70;60.60;;;;;;;11.94;63.96;101083.31;10416106;28;20047;-77
2022/03/29 10:16:12;;;;;;;112.82;57.90;;;;;;;11.69;62.85;101072.59;10399348;28;20029;-77
2022/03/29 10:21:14;;;;;;;128.73;59.83;;;;;;;11.29;63.19;101083.81;10416478;28;20060;-77
2022/03/29 10:26:18;;;;;;;;;;;;;;;11.27;64.36;101077.59;10418206;28;20044;-76
2022/03/29 10:31:33;;;;;;;111.20;63.40;;;;;;;11.54;64.92;101061.38;10415224;28;20295;-76
2022/03/29 10:36:33;;;;;;;109.00;58.15;;;;;;;11.58;65.93;101063.31;10417919;28;20032;-76
2022/03/29 10:41:43;;;;;;;110.80;58.13;;;;;;;13.27;60.58;101062.72;10416127;28;20028;-76
2022/03/29 10:46:46;;;;;;;104.13;55.30;;;;;;;14.31;55.91;101048.16;10427222;28;20503;-77
2022/03/29 10:51:54;;;;;;;87.82;48.92;;;;;;;16.04;53.07;101033.41;10466173;28;20063;-78
2022/03/29 10:57:07;;;;;;;83.13;46.05;;;;;;;16.50;50.20;101025.84;10480981;28;20123;-77
2022/03/29 11:02:16;;;;;;;82.35;44.70;;;;;;;16.43;50.62;101027.41;10480882;28;20055;-77
2022/03/29 11:07:16;;;;;;;83.40;48.10;;;;;;;16.44;50.12;101028.31;10462357;28;20089;-77
2022/03/29 11:12:37;;;;;;;85.45;44.63;;;;;;;15.97;50.55;101024.44;10498057;28;20063;-77
2022/03/29 11:17:40;;;;;;;75.03;42.03;;;;;;;14.91;52.64;101020.34;10480426;28;20060;-77
2022/03/29 11:22:43;;;;;;;;;;;;;;;15.38;52.52;101011.25;10496322;28;20479;-77
2022/03/29 11:27:43;;;;;;;66.60;37.97;;;;;;;15.25;51.93;101004.72;10498136;28;19920;-77
2022/03/29 11:32:45;;;;;;;68.88;38.25;;;;;;;16.60;48.99;101003.19;10499023;28;20066;-77
2022/03/29 11:37:46;;;;;;;75.23;44.13;;;;;;;17.08;47.83;100988.50;10498406;28;20492;-77
2022/03/29 11:42:49;;;;;;;78.20;46.03;;;;;;;18.63;44.11;100977.38;10478183;28;20377;-77
2022/03/29 11:47:57;;;;;;;77.03;41.40;;;;;;;19.11;42.93;100974.59;10495877;28;20053;-78
2022/03/29 11:52:58;;;;;;;76.15;44.13;;;;;;;17.91;45.87;100972.56;10497804;28;20045;-78
2022/03/29 11:57:58;;;;;;;72.45;42.25;;;;;;;19.15;42.78;100952.53;10479297;28;20028;-78
2022/03/29 12:02:59;;;;;;;65.30;39.88;;;;;;;19.05;42.87;100955.06;10494824;28;20060;-77
2022/03/29 12:08:02;;;;;;;71.72;41.28;;;;;;;19.85;41.39;100938.34;10513380;28;20078;-80
2022/03/29 12:13:03;;;;;;;56.58;36.03;;;;;;;19.34;41.95;100938.66;10505767;28;20505;-77
2022/03/29 12:23:23;;;;;;;54.28;31.35;;;;;;;17.48;46.06;100929.38;10496599;28;20037;-78
2022/03/29 12:28:23;;;;;;;46.55;32.28;;;;;;;17.19;46.93;100927.03;10496792;28;20123;-78
2022/03/29 12:33:24;;;;;;;43.85;28.13;;;;;;;16.55;47.79;100922.91;10460225;28;20033;-77
2022/03/29 12:38:24;;;;;;;50.88;32.25;;;;;;;16.91;47.31;100908.75;10461356;28;20035;-77
2022/03/29 12:43:25;;;;;;;45.78;29.58;;;;;;;17.53;46.03;100902.13;10494116;28;20072;-77
2022/03/29 12:48:26;;;;;;;47.25;29.50;;;;;;;17.39;46.82;100903.63;10496151;28;20513;-77
2022/03/29 12:53:27;;;;;;;39.85;27.92;;;;;;;17.90;43.79;100888.72;10494670;28;20043;-77
2022/03/29 12:58:29;;;;;;;39.92;25.48;;;;;;;17.19;46.79;100885.59;10475637;28;20060;-77
2022/03/29 13:03:45;;;;;;;37.88;25.60;;;;;;;16.31;48.71;100886.25;10476793;28;20439;-77
2022/03/29 13:08:46;;;;;;;44.90;26.60;;;;;;;16.02;49.16;100879.38;10459991;28;20020;-77
2022/03/29 13:14:06;;;;;;;42.13;26.83;;;;;;;15.59;50.15;100872.94;10476057;28;20063;-77
2022/03/29 13:19:10;;;;;;;65.25;49.78;;;;;;;14.66;52.50;100877.28;10476891;28;20032;-77
2022/03/29 13:24:15;;;;;;;37.25;23.02;;;;;;;14.40;51.67;100876.47;10493536;28;20107;-77
2022/03/29 13:29:16;;;;;;;41.83;26.00;;;;;;;14.01;54.37;100869.03;10500389;28;20040;-77
2022/03/29 13:34:17;;;;;;;30.23;22.53;;;;;;;13.72;55.08;100861.94;10483668;28;20016;-77
2022/03/29 13:39:17;;;;;;;38.78;23.75;;;;;;;13.41;56.26;100858.19;10485397;28;20052;-76
2022/03/29 13:44:18;;;;;;;37.20;24.60;;;;;;;13.61;55.89;100851.06;10482932;28;20056;-77
2022/03/29 13:49:20;;;;;;;36.65;24.17;;;;;;;13.62;56.36;100837.06;10467606;28;20059;-77
2022/03/29 13:54:22;;;;;;;36.65;22.60;;;;;;;13.60;54.96;100840.47;10502342;28;20082;-77
2022/03/29 13:59:25;;;;;;;32.60;20.38;;;;;;;13.93;53.73;100834.56;10467347;28;20127;-77
2022/03/29 14:04:26;;;;;;;32.72;21.20;;;;;;;13.84;53.74;100818.47;10466884;28;20032;-77
2022/03/29 14:09:27;;;;;;;51.60;30.67;;;;;;;13.64;53.05;100824.88;10483780;28;20040;-77
2022/03/29 14:14:27;;;;;;;34.92;22.85;;;;;;;13.77;53.56;100822.66;10465274;28;20034;-77
2022/03/29 14:19:28;;;;;;;41.40;23.80;;;;;;;14.07;51.42;100814.00;10463935;28;20053;-77
2022/03/29 14:24:28;;;;;;;36.00;23.23;;;;;;;13.91;51.75;100810.84;10478734;28;20074;-77
2022/03/29 14:29:31;;;;;;;34.45;17.75;;;;;;;13.77;48.89;100797.22;10473973;28;20033;-82
2022/03/29 14:34:31;;;;;;;26.60;17.13;;;;;;;13.94;49.66;100789.91;10508200;28;20387;-78
2022/03/29 14:39:33;;;;;;;33.10;21.13;;;;;;;13.95;48.94;100794.31;10481037;28;20060;-77
2022/03/29 14:44:33;;;;;;;29.95;18.60;;;;;;;14.11;50.01;100779.03;10478000;28;20028;-78
2022/03/29 14:49:34;;;;;;;29.67;17.75;;;;;;;14.37;48.94;100771.06;10424605;28;20135;-77
2022/03/29 14:54:37;;;;;;;28.17;16.13;;;;;;;14.11;47.82;100752.72;10394598;28;20043;-77
2022/03/29 14:59:38;;;;;;;29.27;19.13;;;;;;;13.69;49.14;100753.13;10414011;28;20041;-79
2022/03/29 15:04:39;;;;;;;23.45;15.32;;;;;;;13.63;46.40;100759.06;10412402;28;20538;-79
2022/03/29 15:09:40;;;;;;;25.13;18.10;;;;;;;13.15;47.68;100746.88;10413283;28;20020;-79
2022/03/29 15:14:41;;;;;;;27.73;17.30;;;;;;;13.09;48.49;100744.03;10412856;28;20507;-76
2022/03/29 15:19:42;;;;;;;34.00;23.10;;;;;;;13.49;47.65;100737.56;10411940;28;20048;-79
2022/03/29 15:24:44;;;;;;;22.42;15.25;;;;;;;13.39;48.37;100733.69;10413016;28;20032;-79
2022/03/29 15:29:44;;;;;;;;;;;;;;;13.52;48.86;100729.78;10407989;28;20036;-78
2022/03/29 15:34:45;;;;;;;25.00;16.55;;;;;;;13.29;49.71;100723.69;10407120;28;19920;-79
2022/03/29 15:39:49;;;;;;;22.70;14.48;;;;;;;13.21;47.21;100716.44;10406060;28;20051;-78
2022/03/29 15:44:50;;;;;;;20.85;13.20;;;;;;;13.06;48.62;100716.81;10381503;28;20038;-79
2022/03/29 15:49:50;;;;;;;20.77;13.75;;;;;;;12.96;46.75;100711.19;10443981;28;20044;-78
2022/03/29 15:54:51;;;;;;;19.60;14.75;;;;;;;12.77;46.98;100705.28;10450874;28;20384;-78
2022/03/29 15:59:52;;;;;;;22.77;14.25;;;;;;;12.57;47.70;100700.19;10479552;28;20036;-78
2022/03/29 16:04:52;;;;;;;21.52;14.55;;;;;;;12.46;48.18;100698.91;10466687;28;20131;-78
2022/03/29 16:09:53;;;;;;;26.50;14.60;;;;;;;12.33;48.92;100698.44;10471404;28;20056;-77
2022/03/29 16:14:53;;;;;;;20.45;14.57;;;;;;;12.44;50.02;100692.69;10446702;28;20032;-77
2022/03/29 16:19:55;;;;;;;21.73;13.50;;;;;;;12.41;49.78;100690.88;10494162;28;20075;-77
2022/03/29 16:24:55;;;;;;;21.57;11.43;;;;;;;12.35;49.62;100680.13;10495453;28;20047;-77
2022/03/29 16:29:57;;;;;;;24.73;12.95;;;;;;;12.15;49.87;100675.03;10495713;28;20025;-76
2022/03/29 16:34:57;;;;;;;21.00;13.43;;;;;;;11.98;49.85;100666.47;10496025;28;20111;-77
2022/03/29 16:39:59;;;;;;;21.25;13.77;;;;;;;11.93;51.87;100660.16;10476240;28;20593;-77
2022/03/29 16:45:00;;;;;;;22.80;14.30;;;;;;;11.73;52.11;100659.38;10476390;28;20036;-76
2022/03/29 16:50:01;;;;;;;19.75;14.20;;;;;;;11.63;51.59;100654.59;10475993;28;20378;-75
2022/03/29 16:55:01;;;;;;;25.27;13.75;;;;;;;11.48;53.42;100645.28;10496352;28;20388;-77
2022/03/29 17:00:03;;;;;;;25.45;14.52;;;;;;;11.35;53.28;100657.00;10461588;28;20077;-76
2022/03/29 17:05:04;;;;;;;26.73;16.95;;;;;;;11.21;53.97;100652.91;10491095;28;20031;-77
2022/03/29 17:10:05;;;;;;;26.92;16.67;;;;;;;11.01;54.99;100648.63;10477695;28;20032;-77
2022/03/29 17:15:06;;;;;;;28.05;17.17;;;;;;;10.92;55.27;100655.19;10493835;28;20020;-77
2022/03/29 17:20:07;;;;;;;26.33;17.27;;;;;;;10.85;55.97;100649.69;10475084;28;20060;-76
2022/03/29 17:25:08;;;;;;;27.50;16.70;;;;;;;10.77;55.69;100656.31;10460951;28;20060;-77
2022/03/29 17:30:09;;;;;;;28.70;18.23;;;;;;;10.62;56.19;100655.66;10495410;28;20040;-76
2022/03/29 17:35:10;;;;;;;27.70;18.05;;;;;;;10.41;57.28;100654.78;10491450;28;20066;-76
2022/03/29 17:40:10;;;;;;;32.28;17.65;;;;;;;10.20;57.21;100654.66;10474663;28;20060;-76
2022/03/29 17:45:11;;;;;;;35.33;18.27;;;;;;;9.99;57.82;100652.84;10493303;28;20037;-77
2022/03/29 17:50:12;;;;;;;27.42;18.23;;;;;;;9.75;58.80;100649.97;10491653;28;20055;-77
2022/03/29 17:55:20;;;;;;;34.80;17.70;;;;;;;9.49;60.19;100654.84;10494412;28;20418;-77
2022/03/29 18:00:20;;;;;;;27.15;18.85;;;;;;;9.19;60.89;100657.75;10490664;28;20029;-77
2022/03/29 18:05:21;;;;;;;30.27;17.75;;;;;;;8.89;61.84;100650.16;10493291;28;20037;-77
2022/03/29 18:10:22;;;;;;;30.50;18.95;;;;;;;8.51;64.12;100660.38;10474246;28;20035;-77
2022/03/29 18:15:22;;;;;;;34.72;19.83;;;;;;;8.20;65.34;100661.31;10496534;28;20047;-77
2022/03/29 18:20:23;;;;;;;30.63;18.95;;;;;;;7.88;66.51;100663.06;10500303;28;20099;-77
2022/03/29 18:25:25;;;;;;;37.83;22.17;;;;;;;7.66;68.03;100665.28;10498304;28;20028;-77
2022/03/29 18:30:25;;;;;;;39.13;22.23;;;;;;;7.49;69.26;100654.81;10479488;28;20037;-77
2022/03/29 18:35:26;;;;;;;36.47;21.17;;;;;;;7.32;69.43;100662.56;10466673;28;20275;-76
2022/03/29 18:40:26;;;;;;;39.20;22.65;;;;;;;7.24;70.65;100658.63;10496422;28;20116;-77
2022/03/29 18:45:27;;;;;;;33.15;20.67;;;;;;;7.14;70.97;100654.59;10499222;28;20498;-77
2022/03/29 18:50:30;;;;;;;33.03;21.05;;;;;;;7.09;71.89;100666.47;10480578;28;20052;-77
2022/03/29 18:55:31;;;;;;;39.45;20.50;;;;;;;6.99;73.06;100659.81;10500329;28;20510;-77
2022/03/29 19:00:32;;;;;;;44.20;23.08;;;;;;;6.95;73.66;100659.53;10482958;28;20119;-77
2022/03/29 19:05:33;;;;;;;40.83;25.93;;;;;;;7.29;72.52;100658.91;10458401;28;20036;-77
2022/03/29 19:10:34;;;;;;;40.40;23.67;;;;;;;7.47;70.94;100649.53;10472584;28;20442;-79
2022/03/29 19:15:35;;;;;;;39.85;22.40;;;;;;;7.55;70.47;100646.47;10454008;28;20035;-78
2022/03/29 19:20:35;;;;;;;35.67;24.05;;;;;;;7.34;71.53;100647.94;10487756;28;20072;-78
2022/03/29 19:25:39;;;;;;;36.22;21.98;;;;;;;7.19;71.34;100641.84;10460902;28;20123;-77
2022/03/29 19:30:41;;;;;;;43.92;26.88;;;;;;;7.08;72.55;100641.25;10488674;28;20028;-77
2022/03/29 19:35:43;;;;;;;46.57;27.50;;;;;;;7.01;72.51;100644.28;10470644;28;20028;-77
2022/03/29 19:40:44;;;;;;;35.85;20.35;;;;;;;6.96;73.28;100637.91;10489510;28;20121;-77
2022/03/29 19:45:50;;;;;;;39.13;23.15;;;;;;;6.98;74.35;100639.78;10484422;28;20043;-78
2022/03/29 19:50:50;;;;;;;39.63;26.80;;;;;;;6.96;73.91;100635.31;10451576;28;20144;-77
2022/03/29 19:55:51;;;;;;;43.13;27.35;;;;;;;6.96;74.05;100633.59;10438685;28;20143;-78
2022/03/29 20:00:56;;;;;;;36.97;23.55;;;;;;;6.87;74.43;100638.25;10436045;28;20124;-78
2022/03/29 20:05:57;;;;;;;39.20;25.27;;;;;;;6.80;74.32;100637.03;10437286;28;20041;-77
2022/03/29 20:10:57;;;;;;;42.20;26.25;;;;;;;6.81;73.26;100630.09;10435192;28;20057;-78
2022/03/29 20:15:58;;;;;;;41.65;25.23;;;;;;;6.69;74.15;100625.97;10395101;28;20064;-76
2022/03/29 20:20:58;;;;;;;35.28;21.17;;;;;;;6.53;74.04;100628.44;10447473;28;20623;-77
2022/03/29 20:25:59;;;;;;;44.95;27.13;;;;;;;6.38;75.03;100633.63;10454939;28;20057;-77
2022/03/29 20:30:59;;;;;;;49.70;28.77;;;;;;;6.38;75.95;100629.31;10453555;28;20506;-77
2022/03/29 20:36:00;;;;;;;41.88;25.92;;;;;;;6.60;73.58;100628.00;10452424;28;20056;-77
2022/03/29 20:41:01;;;;;;;39.10;23.00;;;;;;;6.64;73.70;100624.78;10453672;28;20033;-77
2022/03/29 20:46:03;;;;;;;36.60;23.17;;;;;;;6.77;70.68;100629.03;10451568;28;20028;-77
2022/03/29 20:51:03;;;;;;;37.42;22.27;;;;;;;7.02;69.30;100625.28;10411100;28;20122;-77
2022/03/29 20:56:04;;;;;;;38.35;23.48;;;;;;;6.97;69.69;100624.97;10412662;28;20078;-77
2022/03/29 21:01:05;;;;;;;38.72;23.65;;;;;;;6.98;70.45;100621.56;10410260;28;20048;-77
2022/03/29 21:06:05;;;;;;;32.88;22.67;;;;;;;6.92;71.21;100631.63;10410302;28;20057;-77
2022/03/29 21:11:07;;;;;;;41.47;22.38;;;;;;;6.86;70.56;100632.19;10410976;28;20140;-77
2022/03/29 21:16:07;;;;;;;38.72;24.15;;;;;;;6.99;69.70;100622.50;10411725;28;20105;-77
2022/03/29 21:21:15;;;;;;;35.15;22.92;;;;;;;7.04;69.38;100629.75;10410156;28;20455;-77
2022/03/29 21:26:16;;;;;;;49.85;24.05;;;;;;;7.05;69.28;100628.06;10395515;28;20041;-77
2022/03/29 21:31:17;;;;;;;38.67;22.80;;;;;;;7.00;69.54;100632.09;10409488;28;20129;-77
2022/03/29 21:36:17;;;;;;;42.72;21.20;;;;;;;7.11;68.05;100623.19;10411848;28;20105;-78
2022/03/29 21:41:18;;;;;;;33.80;20.02;;;;;;;7.29;67.12;100628.56;10410430;28;20067;-77
2022/03/29 21:46:19;;;;;;;38.65;22.17;;;;;;;7.37;65.46;100622.88;10414819;28;20045;-77
2022/03/29 21:51:19;;;;;;;42.38;21.60;;;;;;;7.41;65.42;100624.84;10500050;28;20087;-77
2022/03/29 21:56:20;;;;;;;39.97;22.17;;;;;;;7.41;66.31;100624.84;10500564;28;20048;-77
2022/03/29 22:01:20;;;;;;;37.47;20.75;;;;;;;7.34;66.07;100626.22;10500287;28;20025;-77
2022/03/29 22:06:21;;;;;;;35.28;19.58;;;;;;;7.31;66.46;100613.03;10483757;28;20079;-77
2022/03/29 22:11:21;;;;;;;33.15;20.55;;;;;;;7.30;66.23;100621.66;10500995;28;20064;-77
2022/03/29 22:16:22;;;;;;;36.17;21.52;;;;;;;7.29;67.08;100605.13;10500902;28;20160;-77
2022/03/29 22:21:22;;;;;;;35.20;20.30;;;;;;;7.20;67.31;100605.50;10499859;28;20513;-77
2022/03/29 22:26:23;;;;;;;39.10;20.60;;;;;;;7.28;65.79;100608.53;10482114;28;20037;-77
2022/03/29 22:31:23;;;;;;;35.10;20.95;;;;;;;7.30;65.41;100614.72;10482778;28;20033;-77
2022/03/29 22:36:24;;;;;;;40.80;22.88;;;;;;;7.27;66.53;100609.34;10481007;28;20055;-76
2022/03/29 22:41:25;;;;;;;41.28;25.20;;;;;;;7.33;65.41;100607.09;10500511;28;20059;-77
2022/03/29 22:46:25;;;;;;;39.47;21.35;;;;;;;7.32;64.97;100597.47;10481463;28;20123;-77
2022/03/29 22:51:26;;;;;;;36.20;21.05;;;;;;;7.42;65.05;100601.50;10499557;28;20064;-77
2022/03/29 23:01:45;;;;;;;32.58;21.17;;;;;;;7.21;67.30;100582.97;10497604;28;20123;-77
2022/03/29 23:06:46;;;;;;;37.13;19.95;;;;;;;6.97;67.78;100577.28;10499155;28;20414;-77